sensor_id;sensor_type;location;lat;lon;timestamp;pressure;altitude;pressure_sealevel;temperature;humidity
55540;BME280;41384;51.418;7.286;2023-05-10T00:00:20;99054.75;;;14.61;100.00
55540;BME280;41384;51.418;7.286;2023-05-10T00:02:47;99055.03;;;14.59;100.00
55540;BME280;41384;51.418;7.286;2023-05-10T00:05:13;99054.16;;;14.54;100.00
55540;BME280;41384;51.418;7.286;2023-05-10T00:07:38;99058.72;;;14.58;100.00
55540;BME280;41384;51.418;7.286;2023-05-10T00:10:04;99053.91;;;14.55;100.00
55540;BME280;41384;51.418;7.286;2023-05-10T00:12:29;99057.06;;;14.52;100.00
55540;BME280;41384;51.418;7.286;2023-05-10T00:14:54;99054.56;;;14.40;100.00
55540;BME280;41384;51.418;7.286;2023-05-10T00:17:20;99053.81;;;14.45;100.00
55540;BME280;41384;51.418;7.286;2023-05-10T00:19:45;99048.84;;;14.54;100.00
55540;BME280;41384;51.418;7.286;2023-05-10T00:22:10;99048.16;;;14.36;100.00
55540;BME280;41384;51.418;7.286;2023-05-10T00:24:35;99048.28;;;14.24;100.00
55540;BME280;41384;51.418;7.286;2023-05-10T00:27:01;99054.50;;;14.35;100.00
55540;BME280;41384;51.418;7.286;2023-05-10T00:29:26;99049.66;;;14.27;100.00
55540;BME280;41384;51.418;7.286;2023-05-10T00:31:53;99050.84;;;14.41;100.00
55540;BME280;41384;51.418;7.286;2023-05-10T00:34:18;99052.47;;;14.42;100.00
55540;BME280;41384;51.418;7.286;2023-05-10T00:36:43;99046.88;;;14.44;100.00
55540;BME280;41384;51.418;7.286;2023-05-10T00:39:08;99050.22;;;14.29;100.00
55540;BME280;41384;51.418;7.286;2023-05-10T00:41:34;99049.75;;;14.37;100.00
55540;BME280;41384;51.418;7.286;2023-05-10T00:43:59;99054.84;;;14.44;100.00
55540;BME280;41384;51.418;7.286;2023-05-10T00:46:25;99046.34;;;14.42;100.00
55540;BME280;41384;51.418;7.286;2023-05-10T00:48:51;99048.75;;;14.43;100.00
55540;BME280;41384;51.418;7.286;2023-05-10T00:51:17;99058.88;;;14.47;100.00
55540;BME280;41384;51.418;7.286;2023-05-10T00:53:44;99052.25;;;14.49;100.00
55540;BME280;41384;51.418;7.286;2023-05-10T00:56:10;99055.22;;;14.53;100.00
55540;BME280;41384;51.418;7.286;2023-05-10T00:58:35;99057.50;;;14.44;100.00
55540;BME280;41384;51.418;7.286;2023-05-10T01:01:01;99047.69;;;14.44;100.00
55540;BME280;41384;51.418;7.286;2023-05-10T01:03:27;99051.97;;;14.45;100.00
55540;BME280;41384;51.418;7.286;2023-05-10T01:05:53;99054.31;;;14.42;100.00
55540;BME280;41384;51.418;7.286;2023-05-10T01:08:18;99048.75;;;14.43;100.00
55540;BME280;41384;51.418;7.286;2023-05-10T01:10:44;99052.00;;;14.23;100.00
55540;BME280;41384;51.418;7.286;2023-05-10T01:13:11;99046.00;;;14.33;100.00
55540;BME280;41384;51.418;7.286;2023-05-10T01:15:37;99056.34;;;14.35;100.00
55540;BME280;41384;51.418;7.286;2023-05-10T01:18:03;99058.56;;;14.43;100.00
55540;BME280;41384;51.418;7.286;2023-05-10T01:20:34;99051.88;;;14.35;100.00
55540;BME280;41384;51.418;7.286;2023-05-10T01:28:44;99051.91;;;14.40;100.00
55540;BME280;41384;51.418;7.286;2023-05-10T01:31:28;99063.38;;;14.46;100.00
55540;BME280;41384;51.418;7.286;2023-05-10T01:33:59;99063.63;;;14.44;100.00
55540;BME280;41384;51.418;7.286;2023-05-10T01:36:32;99065.97;;;14.41;100.00
55540;BME280;41384;51.418;7.286;2023-05-10T01:39:17;99060.16;;;14.44;100.00
55540;BME280;41384;51.418;7.286;2023-05-10T01:42:08;99061.38;;;14.31;100.00
55540;BME280;41384;51.418;7.286;2023-05-10T01:44:35;99067.19;;;14.28;100.00
55540;BME280;41384;51.418;7.286;2023-05-10T01:47:10;99069.06;;;14.33;100.00
55540;BME280;41384;51.418;7.286;2023-05-10T01:49:53;99071.19;;;14.30;100.00
55540;BME280;41384;51.418;7.286;2023-05-10T01:52:23;99082.84;;;14.29;100.00
55540;BME280;41384;51.418;7.286;2023-05-10T01:55:00;99069.56;;;14.29;100.00
55540;BME280;41384;51.418;7.286;2023-05-10T01:57:37;99074.03;;;14.24;100.00
55540;BME280;41384;51.418;7.286;2023-05-10T02:00:06;99076.94;;;14.22;100.00
55540;BME280;41384;51.418;7.286;2023-05-10T02:02:37;99079.59;;;14.22;100.00
55540;BME280;41384;51.418;7.286;2023-05-10T02:05:04;99077.31;;;14.09;100.00
55540;BME280;41384;51.418;7.286;2023-05-10T02:07:31;99077.03;;;14.10;100.00
55540;BME280;41384;51.418;7.286;2023-05-10T02:09:57;99082.63;;;14.09;100.00
55540;BME280;41384;51.418;7.286;2023-05-10T02:12:24;99085.38;;;13.97;100.00
55540;BME280;41384;51.418;7.286;2023-05-10T02:14:52;99090.31;;;14.10;100.00
55540;BME280;41384;51.418;7.286;2023-05-10T02:17:19;99093.84;;;14.16;100.00
55540;BME280;41384;51.418;7.286;2023-05-10T02:19:47;99094.84;;;14.10;100.00
55540;BME280;41384;51.418;7.286;2023-05-10T02:22:13;99088.66;;;14.04;100.00
55540;BME280;41384;51.418;7.286;2023-05-10T02:24:40;99091.19;;;13.94;100.00
55540;BME280;41384;51.418;7.286;2023-05-10T02:27:06;99092.34;;;14.03;100.00
55540;BME280;41384;51.418;7.286;2023-05-10T02:29:34;99093.97;;;14.04;100.00
55540;BME280;41384;51.418;7.286;2023-05-10T02:32:01;99097.50;;;14.10;100.00
55540;BME280;41384;51.418;7.286;2023-05-10T02:34:27;99095.00;;;14.03;100.00
55540;BME280;41384;51.418;7.286;2023-05-10T02:36:54;99095.63;;;13.88;100.00
55540;BME280;41384;51.418;7.286;2023-05-10T02:39:21;99090.13;;;13.95;100.00
55540;BME280;41384;51.418;7.286;2023-05-10T02:41:48;99103.72;;;13.98;100.00
55540;BME280;41384;51.418;7.286;2023-05-10T02:44:18;99105.56;;;13.98;100.00
55540;BME280;41384;51.418;7.286;2023-05-10T02:46:45;99099.97;;;13.94;100.00
55540;BME280;41384;51.418;7.286;2023-05-10T02:49:11;99113.28;;;13.99;100.00
55540;BME280;41384;51.418;7.286;2023-05-10T02:51:41;99111.19;;;14.01;100.00
55540;BME280;41384;51.418;7.286;2023-05-10T02:54:11;99115.38;;;13.97;100.00
55540;BME280;41384;51.418;7.286;2023-05-10T02:56:42;99109.53;;;13.95;100.00
55540;BME280;41384;51.418;7.286;2023-05-10T02:59:07;99110.56;;;13.94;100.00
55540;BME280;41384;51.418;7.286;2023-05-10T03:01:33;99108.91;;;13.88;100.00
55540;BME280;41384;51.418;7.286;2023-05-10T03:03:58;99109.47;;;13.73;100.00
55540;BME280;41384;51.418;7.286;2023-05-10T03:06:24;99116.47;;;13.79;100.00
55540;BME280;41384;51.418;7.286;2023-05-10T03:08:49;99112.34;;;13.89;100.00
55540;BME280;41384;51.418;7.286;2023-05-10T03:11:36;99105.81;;;13.96;100.00
55540;BME280;41384;51.418;7.286;2023-05-10T03:14:16;99111.41;;;14.00;100.00
55540;BME280;41384;51.418;7.286;2023-05-10T03:16:48;99111.84;;;13.92;100.00
55540;BME280;41384;51.418;7.286;2023-05-10T03:19:23;99108.09;;;13.88;100.00
55540;BME280;41384;51.418;7.286;2023-05-10T03:21:52;99109.63;;;13.83;100.00
55540;BME280;41384;51.418;7.286;2023-05-10T03:24:20;99113.38;;;13.88;100.00
55540;BME280;41384;51.418;7.286;2023-05-10T03:26:47;99113.81;;;13.79;100.00
55540;BME280;41384;51.418;7.286;2023-05-10T03:29:13;99119.59;;;13.76;100.00
55540;BME280;41384;51.418;7.286;2023-05-10T03:31:39;99121.75;;;13.79;100.00
55540;BME280;41384;51.418;7.286;2023-05-10T03:34:04;99121.41;;;13.70;100.00
55540;BME280;41384;51.418;7.286;2023-05-10T03:36:31;99129.09;;;13.72;100.00
55540;BME280;41384;51.418;7.286;2023-05-10T03:38:56;99127.81;;;13.75;100.00
55540;BME280;41384;51.418;7.286;2023-05-10T03:41:21;99133.06;;;13.52;100.00
55540;BME280;41384;51.418;7.286;2023-05-10T03:43:47;99131.38;;;13.46;100.00
55540;BME280;41384;51.418;7.286;2023-05-10T03:46:12;99131.81;;;13.77;100.00
55540;BME280;41384;51.418;7.286;2023-05-10T03:48:37;99134.88;;;13.86;100.00
55540;BME280;41384;51.418;7.286;2023-05-10T03:51:03;99141.78;;;13.70;100.00
55540;BME280;41384;51.418;7.286;2023-05-10T03:53:28;99137.53;;;13.86;100.00
55540;BME280;41384;51.418;7.286;2023-05-10T03:55:53;99142.63;;;13.70;100.00
55540;BME280;41384;51.418;7.286;2023-05-10T03:58:18;99142.63;;;13.70;100.00
55540;BME280;41384;51.418;7.286;2023-05-10T04:00:44;99133.97;;;13.80;100.00
55540;BME280;41384;51.418;7.286;2023-05-10T04:03:11;99140.09;;;13.81;100.00
55540;BME280;41384;51.418;7.286;2023-05-10T04:05:36;99143.06;;;13.67;100.00
55540;BME280;41384;51.418;7.286;2023-05-10T04:08:02;99140.59;;;13.78;100.00
55540;BME280;41384;51.418;7.286;2023-05-10T04:10:27;99141.16;;;13.80;100.00
55540;BME280;41384;51.418;7.286;2023-05-10T04:12:53;99138.91;;;13.71;100.00
55540;BME280;41384;51.418;7.286;2023-05-10T04:15:18;99140.97;;;13.69;100.00
55540;BME280;41384;51.418;7.286;2023-05-10T04:17:43;99137.25;;;13.88;100.00
55540;BME280;41384;51.418;7.286;2023-05-10T04:20:09;99137.03;;;13.89;100.00
55540;BME280;41384;51.418;7.286;2023-05-10T04:22:35;99137.88;;;13.95;100.00
55540;BME280;41384;51.418;7.286;2023-05-10T04:25:00;99140.25;;;13.91;100.00
55540;BME280;41384;51.418;7.286;2023-05-10T04:27:26;99141.28;;;13.90;100.00
55540;BME280;41384;51.418;7.286;2023-05-10T04:29:51;99142.91;;;13.74;100.00
55540;BME280;41384;51.418;7.286;2023-05-10T04:32:16;99142.19;;;13.79;100.00
55540;BME280;41384;51.418;7.286;2023-05-10T04:34:43;99147.59;;;13.67;100.00
55540;BME280;41384;51.418;7.286;2023-05-10T04:37:08;99148.47;;;13.73;100.00
55540;BME280;41384;51.418;7.286;2023-05-10T04:39:33;99147.94;;;13.93;100.00
55540;BME280;41384;51.418;7.286;2023-05-10T04:42:00;99142.91;;;13.91;100.00
55540;BME280;41384;51.418;7.286;2023-05-10T04:44:25;99141.09;;;13.97;100.00
55540;BME280;41384;51.418;7.286;2023-05-10T04:46:51;99146.53;;;13.85;100.00
55540;BME280;41384;51.418;7.286;2023-05-10T04:49:16;99150.94;;;13.79;100.00
55540;BME280;41384;51.418;7.286;2023-05-10T04:51:41;99152.88;;;13.84;100.00
55540;BME280;41384;51.418;7.286;2023-05-10T04:54:07;99160.41;;;13.92;100.00
55540;BME280;41384;51.418;7.286;2023-05-10T04:56:32;99158.56;;;13.93;100.00
55540;BME280;41384;51.418;7.286;2023-05-10T04:58:57;99160.66;;;13.91;100.00
55540;BME280;41384;51.418;7.286;2023-05-10T05:01:23;99163.50;;;13.84;100.00
55540;BME280;41384;51.418;7.286;2023-05-10T05:03:48;99162.31;;;13.97;100.00
55540;BME280;41384;51.418;7.286;2023-05-10T05:06:13;99156.47;;;13.95;100.00
55540;BME280;41384;51.418;7.286;2023-05-10T05:08:38;99158.38;;;13.99;100.00
55540;BME280;41384;51.418;7.286;2023-05-10T05:11:04;99174.09;;;13.84;100.00
55540;BME280;41384;51.418;7.286;2023-05-10T05:13:29;99166.03;;;13.96;100.00
55540;BME280;41384;51.418;7.286;2023-05-10T05:15:54;99181.44;;;13.99;100.00
55540;BME280;41384;51.418;7.286;2023-05-10T05:18:20;99184.38;;;13.97;100.00
55540;BME280;41384;51.418;7.286;2023-05-10T05:20:45;99177.53;;;14.01;100.00
55540;BME280;41384;51.418;7.286;2023-05-10T05:23:11;99179.00;;;13.92;100.00
55540;BME280;41384;51.418;7.286;2023-05-10T05:25:36;99165.47;;;13.94;100.00
55540;BME280;41384;51.418;7.286;2023-05-10T05:28:01;99176.81;;;13.89;100.00
55540;BME280;41384;51.418;7.286;2023-05-10T05:30:27;99182.56;;;14.03;100.00
55540;BME280;41384;51.418;7.286;2023-05-10T05:32:52;99184.38;;;13.97;100.00
55540;BME280;41384;51.418;7.286;2023-05-10T05:35:17;99181.78;;;14.03;100.00
55540;BME280;41384;51.418;7.286;2023-05-10T05:37:43;99181.72;;;13.97;100.00
55540;BME280;41384;51.418;7.286;2023-05-10T05:40:12;99183.88;;;14.00;100.00
55540;BME280;41384;51.418;7.286;2023-05-10T05:42:37;99193.81;;;14.10;100.00
55540;BME280;41384;51.418;7.286;2023-05-10T05:45:03;99196.88;;;14.02;100.00
55540;BME280;41384;51.418;7.286;2023-05-10T05:47:29;99183.94;;;14.06;100.00
55540;BME280;41384;51.418;7.286;2023-05-10T05:49:54;99187.88;;;14.03;100.00
55540;BME280;41384;51.418;7.286;2023-05-10T05:52:20;99190.94;;;14.12;100.00
55540;BME280;41384;51.418;7.286;2023-05-10T05:54:46;99193.09;;;14.15;100.00
55540;BME280;41384;51.418;7.286;2023-05-10T05:57:11;99194.13;;;14.14;100.00
55540;BME280;41384;51.418;7.286;2023-05-10T05:59:37;99193.81;;;14.10;100.00
55540;BME280;41384;51.418;7.286;2023-05-10T06:02:07;99196.22;;;14.12;100.00
55540;BME280;41384;51.418;7.286;2023-05-10T06:04:32;99203.69;;;14.15;100.00
55540;BME280;41384;51.418;7.286;2023-05-10T06:06:57;99197.69;;;14.03;100.00
55540;BME280;41384;51.418;7.286;2023-05-10T06:09:22;99204.53;;;14.15;100.00
55540;BME280;41384;51.418;7.286;2023-05-10T06:11:49;99209.06;;;14.20;100.00
55540;BME280;41384;51.418;7.286;2023-05-10T06:14:20;99217.03;;;14.20;100.00
55540;BME280;41384;51.418;7.286;2023-05-10T06:16:45;99215.81;;;14.28;100.00
55540;BME280;41384;51.418;7.286;2023-05-10T06:19:10;99235.94;;;14.24;100.00
55540;BME280;41384;51.418;7.286;2023-05-10T06:21:36;99234.16;;;14.29;100.00
55540;BME280;41384;51.418;7.286;2023-05-10T06:24:01;99243.00;;;14.35;100.00
55540;BME280;41384;51.418;7.286;2023-05-10T06:26:27;99244.03;;;14.34;100.00
55540;BME280;41384;51.418;7.286;2023-05-10T06:28:53;99228.19;;;14.39;100.00
55540;BME280;41384;51.418;7.286;2023-05-10T06:31:18;99235.66;;;14.42;100.00
55540;BME280;41384;51.418;7.286;2023-05-10T06:33:43;99233.00;;;14.42;100.00
55540;BME280;41384;51.418;7.286;2023-05-10T06:36:08;99234.13;;;14.47;100.00
55540;BME280;41384;51.418;7.286;2023-05-10T06:38:34;99239.28;;;14.36;100.00
55540;BME280;41384;51.418;7.286;2023-05-10T06:40:59;99233.56;;;14.44;100.00
55540;BME280;41384;51.418;7.286;2023-05-10T06:43:24;99242.44;;;14.55;100.00
55540;BME280;41384;51.418;7.286;2023-05-10T06:45:51;99242.94;;;14.52;100.00
55540;BME280;41384;51.418;7.286;2023-05-10T06:48:16;99243.09;;;14.63;100.00
55540;BME280;41384;51.418;7.286;2023-05-10T06:50:42;99247.03;;;14.60;100.00
55540;BME280;41384;51.418;7.286;2023-05-10T06:53:07;99243.59;;;14.59;100.00
55540;BME280;41384;51.418;7.286;2023-05-10T06:55:32;99251.34;;;14.66;100.00
55540;BME280;41384;51.418;7.286;2023-05-10T06:57:57;99241.88;;;14.70;100.00
55540;BME280;41384;51.418;7.286;2023-05-10T07:00:23;99248.34;;;14.80;100.00
55540;BME280;41384;51.418;7.286;2023-05-10T07:02:48;99234.50;;;14.78;100.00
55540;BME280;41384;51.418;7.286;2023-05-10T07:05:13;99244.91;;;14.79;100.00
55540;BME280;41384;51.418;7.286;2023-05-10T07:07:39;99251.06;;;14.85;100.00
55540;BME280;41384;51.418;7.286;2023-05-10T07:10:05;99258.09;;;14.96;100.00
55540;BME280;41384;51.418;7.286;2023-05-10T07:12:30;99254.38;;;14.97;100.00
55540;BME280;41384;51.418;7.286;2023-05-10T07:14:56;99255.25;;;15.03;100.00
55540;BME280;41384;51.418;7.286;2023-05-10T07:17:21;99259.53;;;15.04;100.00
55540;BME280;41384;51.418;7.286;2023-05-10T07:19:47;99259.13;;;15.17;100.00
55540;BME280;41384;51.418;7.286;2023-05-10T07:22:12;99257.13;;;15.30;100.00
55540;BME280;41384;51.418;7.286;2023-05-10T07:24:38;99258.78;;;15.36;100.00
55540;BME280;41384;51.418;7.286;2023-05-10T07:27:03;99260.63;;;15.36;100.00
55540;BME280;41384;51.418;7.286;2023-05-10T07:29:29;99266.88;;;15.19;100.00
55540;BME280;41384;51.418;7.286;2023-05-10T07:31:54;99266.50;;;15.10;100.00
55540;BME280;41384;51.418;7.286;2023-05-10T07:34:20;99261.78;;;15.17;100.00
55540;BME280;41384;51.418;7.286;2023-05-10T07:36:45;99267.09;;;15.17;100.00
55540;BME280;41384;51.418;7.286;2023-05-10T07:39:10;99263.94;;;15.21;100.00
55540;BME280;41384;51.418;7.286;2023-05-10T07:41:36;99262.97;;;15.32;100.00
55540;BME280;41384;51.418;7.286;2023-05-10T07:44:02;99269.03;;;15.50;100.00
55540;BME280;41384;51.418;7.286;2023-05-10T07:46:28;99259.75;;;15.57;100.00
55540;BME280;41384;51.418;7.286;2023-05-10T07:48:53;99259.03;;;15.62;100.00
55540;BME280;41384;51.418;7.286;2023-05-10T07:51:19;99264.38;;;15.67;100.00
55540;BME280;41384;51.418;7.286;2023-05-10T07:53:44;99267.63;;;15.74;100.00
55540;BME280;41384;51.418;7.286;2023-05-10T07:56:30;99267.81;;;15.68;100.00
55540;BME280;41384;51.418;7.286;2023-05-10T07:58:57;99278.59;;;15.51;100.00
55540;BME280;41384;51.418;7.286;2023-05-10T08:01:23;99283.06;;;15.45;100.00
55540;BME280;41384;51.418;7.286;2023-05-10T08:03:48;99275.59;;;15.42;100.00
55540;BME280;41384;51.418;7.286;2023-05-10T08:06:17;99282.69;;;15.36;100.00
55540;BME280;41384;51.418;7.286;2023-05-10T08:08:42;99286.81;;;15.49;100.00
55540;BME280;41384;51.418;7.286;2023-05-10T08:11:08;99286.91;;;15.32;100.00
55540;BME280;41384;51.418;7.286;2023-05-10T08:13:33;99286.63;;;15.28;100.00
55540;BME280;41384;51.418;7.286;2023-05-10T08:15:59;99288.47;;;15.28;100.00
55540;BME280;41384;51.418;7.286;2023-05-10T08:18:24;99291.88;;;15.23;100.00
55540;BME280;41384;51.418;7.286;2023-05-10T08:20:49;99291.63;;;15.25;100.00
55540;BME280;41384;51.418;7.286;2023-05-10T08:23:15;99302.53;;;15.23;100.00
55540;BME280;41384;51.418;7.286;2023-05-10T08:25:40;99303.31;;;15.24;100.00
55540;BME280;41384;51.418;7.286;2023-05-10T08:28:05;99311.78;;;15.21;100.00
55540;BME280;41384;51.418;7.286;2023-05-10T08:30:31;99302.56;;;15.28;100.00
55540;BME280;41384;51.418;7.286;2023-05-10T08:32:56;99309.03;;;15.10;100.00
55540;BME280;41384;51.418;7.286;2023-05-10T08:35:22;99319.75;;;15.21;100.00
55540;BME280;41384;51.418;7.286;2023-05-10T08:37:47;99317.22;;;15.31;100.00
55540;BME280;41384;51.418;7.286;2023-05-10T08:40:13;99319.41;;;15.39;100.00
55540;BME280;41384;51.418;7.286;2023-05-10T08:42:43;99322.34;;;15.38;100.00
55540;BME280;41384;51.418;7.286;2023-05-10T08:45:11;99317.63;;;15.45;100.00
55540;BME280;41384;51.418;7.286;2023-05-10T08:47:37;99316.34;;;15.48;100.00
55540;BME280;41384;51.418;7.286;2023-05-10T08:50:03;99327.31;;;15.56;100.00
55540;BME280;41384;51.418;7.286;2023-05-10T08:52:30;99326.16;;;15.74;100.00
55540;BME280;41384;51.418;7.286;2023-05-10T08:54:56;99320.75;;;15.92;100.00
55540;BME280;41384;51.418;7.286;2023-05-10T08:57:21;99319.00;;;16.08;100.00
55540;BME280;41384;51.418;7.286;2023-05-10T08:59:47;99322.91;;;15.95;100.00
55540;BME280;41384;51.418;7.286;2023-05-10T09:02:13;99328.22;;;15.67;100.00
55540;BME280;41384;51.418;7.286;2023-05-10T09:04:38;99330.66;;;15.74;100.00
55540;BME280;41384;51.418;7.286;2023-05-10T09:07:04;99333.56;;;15.67;100.00
55540;BME280;41384;51.418;7.286;2023-05-10T09:09:29;99335.16;;;15.96;100.00
55540;BME280;41384;51.418;7.286;2023-05-10T09:11:56;99327.97;;;15.96;100.00
55540;BME280;41384;51.418;7.286;2023-05-10T09:14:23;99338.09;;;15.99;100.00
55540;BME280;41384;51.418;7.286;2023-05-10T09:16:48;99346.63;;;16.01;100.00
55540;BME280;41384;51.418;7.286;2023-05-10T09:19:14;99337.41;;;16.09;100.00
55540;BME280;41384;51.418;7.286;2023-05-10T09:21:39;99338.56;;;16.24;100.00
55540;BME280;41384;51.418;7.286;2023-05-10T09:24:06;99339.16;;;16.31;100.00
55540;BME280;41384;51.418;7.286;2023-05-10T09:26:32;99337.00;;;16.28;100.00
55540;BME280;41384;51.418;7.286;2023-05-10T09:28:59;99342.00;;;16.24;100.00
55540;BME280;41384;51.418;7.286;2023-05-10T09:31:43;99336.75;;;16.34;100.00
55540;BME280;41384;51.418;7.286;2023-05-10T09:34:09;99341.63;;;16.43;100.00
55540;BME280;41384;51.418;7.286;2023-05-10T09:36:34;99338.19;;;16.47;100.00
55540;BME280;41384;51.418;7.286;2023-05-10T09:38:59;99348.88;;;16.53;100.00
55540;BME280;41384;51.418;7.286;2023-05-10T09:41:25;99336.72;;;16.72;100.00
55540;BME280;41384;51.418;7.286;2023-05-10T09:43:55;99338.88;;;16.75;100.00
55540;BME280;41384;51.418;7.286;2023-05-10T09:46:21;99343.09;;;16.71;99.96
55540;BME280;41384;51.418;7.286;2023-05-10T09:48:48;99339.13;;;16.74;100.00
55540;BME280;41384;51.418;7.286;2023-05-10T09:51:23;99344.78;;;16.83;100.00
55540;BME280;41384;51.418;7.286;2023-05-10T09:54:09;99349.16;;;16.99;100.00
55540;BME280;41384;51.418;7.286;2023-05-10T09:56:38;99346.50;;;16.99;100.00
55540;BME280;41384;51.418;7.286;2023-05-10T09:59:04;99352.63;;;17.05;100.00
55540;BME280;41384;51.418;7.286;2023-05-10T10:01:30;99347.50;;;16.93;99.03
55540;BME280;41384;51.418;7.286;2023-05-10T10:03:56;99352.31;;;16.96;97.40
55540;BME280;41384;51.418;7.286;2023-05-10T10:06:23;99353.59;;;16.88;97.44
55540;BME280;41384;51.418;7.286;2023-05-10T10:08:48;99366.03;;;16.72;98.84
55540;BME280;41384;51.418;7.286;2023-05-10T10:11:13;99357.78;;;16.74;98.88
55540;BME280;41384;51.418;7.286;2023-05-10T10:13:40;99354.81;;;16.65;98.48
55540;BME280;41384;51.418;7.286;2023-05-10T10:16:08;99359.56;;;16.58;98.69
55540;BME280;41384;51.418;7.286;2023-05-10T10:18:35;99360.09;;;16.60;99.50
55540;BME280;41384;51.418;7.286;2023-05-10T10:21:05;99361.00;;;16.76;98.53
55540;BME280;41384;51.418;7.286;2023-05-10T10:23:30;99354.31;;;16.73;96.94
55540;BME280;41384;51.418;7.286;2023-05-10T10:25:56;99363.78;;;16.54;94.81
55540;BME280;41384;51.418;7.286;2023-05-10T10:28:26;99362.38;;;16.36;96.67
55540;BME280;41384;51.418;7.286;2023-05-10T10:31:01;99370.16;;;16.15;100.00
55540;BME280;41384;51.418;7.286;2023-05-10T10:33:55;99378.06;;;16.04;100.00
55540;BME280;41384;51.418;7.286;2023-05-10T10:36:22;99374.53;;;16.26;98.08
55540;BME280;41384;51.418;7.286;2023-05-10T10:52:38;99377.53;;;16.78;89.89
55540;BME280;41384;51.418;7.286;2023-05-10T10:55:05;99373.41;;;16.98;90.63
55540;BME280;41384;51.418;7.286;2023-05-10T10:57:55;99366.50;;;17.07;90.70
55540;BME280;41384;51.418;7.286;2023-05-10T11:00:29;99372.88;;;17.01;91.02
55540;BME280;41384;51.418;7.286;2023-05-10T11:03:06;99383.47;;;16.96;91.95
55540;BME280;41384;51.418;7.286;2023-05-10T11:05:39;99386.66;;;16.92;90.23
55540;BME280;41384;51.418;7.286;2023-05-10T11:08:28;99391.66;;;16.78;88.13
55540;BME280;41384;51.418;7.286;2023-05-10T11:13:38;99391.06;;;16.71;87.79
55540;BME280;41384;51.418;7.286;2023-05-10T11:16:13;99392.97;;;16.76;86.70
55540;BME280;41384;51.418;7.286;2023-05-10T11:18:38;99401.03;;;16.86;87.83
55540;BME280;41384;51.418;7.286;2023-05-10T11:21:04;99400.56;;;16.57;89.21
55540;BME280;41384;51.418;7.286;2023-05-10T11:26:09;99395.44;;;16.83;85.54
55540;BME280;41384;51.418;7.286;2023-05-10T11:28:46;99396.75;;;16.85;86.35
55540;BME280;41384;51.418;7.286;2023-05-10T11:31:18;99404.78;;;16.90;87.20
55540;BME280;41384;51.418;7.286;2023-05-10T11:33:49;99407.16;;;16.82;86.56
55540;BME280;41384;51.418;7.286;2023-05-10T11:36:17;99412.91;;;16.68;87.13
55540;BME280;41384;51.418;7.286;2023-05-10T11:38:43;99413.94;;;16.62;87.13
55540;BME280;41384;51.418;7.286;2023-05-10T11:41:09;99425.81;;;16.44;88.89
55540;BME280;41384;51.418;7.286;2023-05-10T11:43:41;99426.59;;;16.44;88.75
55540;BME280;41384;51.418;7.286;2023-05-10T11:46:11;99417.06;;;16.21;88.57
55540;BME280;41384;51.418;7.286;2023-05-10T11:48:38;99421.22;;;16.39;89.65
55540;BME280;41384;51.418;7.286;2023-05-10T11:51:04;99418.84;;;16.38;89.10
55540;BME280;41384;51.418;7.286;2023-05-10T11:53:31;99416.44;;;16.41;88.48
55540;BME280;41384;51.418;7.286;2023-05-10T11:56:15;99417.38;;;16.57;89.77
55540;BME280;41384;51.418;7.286;2023-05-10T11:58:40;99425.91;;;16.59;88.87
55540;BME280;41384;51.418;7.286;2023-05-10T12:01:07;99423.56;;;16.68;89.26
55540;BME280;41384;51.418;7.286;2023-05-10T12:03:33;99428.97;;;16.78;88.36
55540;BME280;41384;51.418;7.286;2023-05-10T12:05:59;99431.16;;;16.87;88.83
55540;BME280;41384;51.418;7.286;2023-05-10T12:08:26;99436.06;;;17.00;87.77
55540;BME280;41384;51.418;7.286;2023-05-10T12:10:53;99436.94;;;17.16;86.51
55540;BME280;41384;51.418;7.286;2023-05-10T12:13:19;99435.34;;;17.15;87.16
55540;BME280;41384;51.418;7.286;2023-05-10T12:15:45;99434.81;;;17.18;86.95
55540;BME280;41384;51.418;7.286;2023-05-10T12:18:14;99428.31;;;16.99;86.90
55540;BME280;41384;51.418;7.286;2023-05-10T12:20:40;99432.81;;;16.93;85.94
55540;BME280;41384;51.418;7.286;2023-05-10T12:23:08;99432.25;;;16.91;85.00
55540;BME280;41384;51.418;7.286;2023-05-10T12:25:36;99435.75;;;16.97;83.98
55540;BME280;41384;51.418;7.286;2023-05-10T12:28:04;99431.91;;;17.20;83.20
55540;BME280;41384;51.418;7.286;2023-05-10T12:30:31;99431.41;;;17.33;83.48
55540;BME280;41384;51.418;7.286;2023-05-10T12:33:11;99433.31;;;17.33;82.84
55540;BME280;41384;51.418;7.286;2023-05-10T12:35:51;99433.31;;;17.33;82.42
55540;BME280;41384;51.418;7.286;2023-05-10T12:38:44;99440.22;;;17.29;80.50
55540;BME280;41384;51.418;7.286;2023-05-10T12:41:11;99434.38;;;17.37;80.88
55540;BME280;41384;51.418;7.286;2023-05-10T12:43:37;99441.38;;;17.48;81.12
55540;BME280;41384;51.418;7.286;2023-05-10T12:46:16;99441.34;;;17.43;79.06
55540;BME280;41384;51.418;7.286;2023-05-10T12:48:44;99451.50;;;17.52;80.33
55540;BME280;41384;51.418;7.286;2023-05-10T12:51:11;99460.78;;;17.39;81.00
55540;BME280;41384;51.418;7.286;2023-05-10T12:53:41;99449.38;;;17.54;80.30
55540;BME280;41384;51.418;7.286;2023-05-10T12:56:06;99452.06;;;17.59;80.06
55540;BME280;41384;51.418;7.286;2023-05-10T12:58:32;99455.59;;;17.75;80.04
55540;BME280;41384;51.418;7.286;2023-05-10T13:00:58;99456.91;;;17.72;79.94
55540;BME280;41384;51.418;7.286;2023-05-10T13:03:23;99454.38;;;18.14;79.11
55540;BME280;41384;51.418;7.286;2023-05-10T13:05:49;99461.56;;;18.18;78.72
55540;BME280;41384;51.418;7.286;2023-05-10T13:08:14;99454.34;;;18.08;78.40
55540;BME280;41384;51.418;7.286;2023-05-10T13:10:40;99455.41;;;18.07;78.15
55540;BME280;41384;51.418;7.286;2023-05-10T13:13:05;99455.09;;;17.88;80.13
55540;BME280;41384;51.418;7.286;2023-05-10T13:15:31;99452.97;;;17.90;80.55
55540;BME280;41384;51.418;7.286;2023-05-10T13:17:56;99446.53;;;17.81;81.14